Time,TemperatureF,DewpointF,PressureIn,WindDirection,WindDirectionDegrees,WindSpeedMPH,WindSpeedGustMPH,Humidity,HourlyPrecipIn,Conditions,Clouds,dailyrainin,SoftwareType,DateUTC
2013-06-27 00:00:00,64.2,63.3,29.89,SSW,211,0.0,0.0,97,0.00,,,0.00,Wunderground v.1.15,2013-06-27 04:00:00,
2013-06-27 00:05:00,64.0,63.1,29.88,SSW,211,0.0,0.0,97,0.00,,,0.00,Wunderground v.1.15,2013-06-27 04:05:00,
2013-06-27 00:10:00,64.0,63.1,29.88,SSW,211,0.0,0.0,97,0.00,,,0.00,Wunderground v.1.15,2013-06-27 04:10:00,
2013-06-27 00:20:00,64.2,63.3,29.88,SSW,211,0.0,0.0,97,0.00,,,0.00,Wunderground v.1.15,2013-06-27 04:20:00,
2013-06-27 00:25:00,64.2,63.3,29.88,SSW,211,0.0,0.0,97,0.00,,,0.00,Wunderground v.1.15,2013-06-27 04:25:00,
2013-06-27 00:30:00,64.2,63.3,29.87,SSW,211,0.0,0.0,97,0.00,,,0.00,Wunderground v.1.15,2013-06-27 04:30:00,
2013-06-27 00:35:00,64.2,63.6,29.88,SSW,211,0.0,0.0,98,0.00,,,0.00,Wunderground v.1.15,2013-06-27 04:35:00,
2013-06-27 00:40:00,64.3,63.7,29.88,SSW,211,0.0,0.0,98,0.00,,,0.00,Wunderground v.1.15,2013-06-27 04:40:00,
2013-06-27 00:50:00,64.5,63.9,29.87,SSW,211,0.0,0.0,98,0.00,,,0.00,Wunderground v.1.15,2013-06-27 04:50:00,
2013-06-27 01:00:00,64.5,63.9,29.87,SSW,211,0.0,0.0,98,0.00,,,0.00,Wunderground v.1.15,2013-06-27 05:00:00,
2013-06-27 01:05:00,64.5,63.9,29.86,SSW,211,0.0,0.0,98,0.00,,,0.00,Wunderground v.1.15,2013-06-27 05:05:00,
2013-06-27 01:10:00,64.7,64.1,29.86,SSW,211,0.0,0.0,98,0.00,,,0.01,Wunderground v.1.15,2013-06-27 05:10:00,
2013-06-27 01:15:00,64.7,64.1,29.86,SSW,211,0.0,0.0,98,0.00,,,0.01,Wunderground v.1.15,2013-06-27 05:15:00,
2013-06-27 01:20:00,64.7,64.1,29.86,SSW,211,0.0,0.0,98,0.00,,,0.01,Wunderground v.1.15,2013-06-27 05:20:00,
2013-06-27 01:30:00,64.8,64.2,29.86,SSW,211,0.0,0.0,98,0.00,,,0.01,Wunderground v.1.15,2013-06-27 05:30:00,
2013-06-27 01:40:00,65.2,64.6,29.87,SSW,211,0.0,0.0,98,0.00,,,0.02,Wunderground v.1.15,2013-06-27 05:40:00,
2013-06-27 01:50:00,65.2,64.6,29.88,SSW,196,1.0,4.0,98,0.24,,,0.06,Wunderground v.1.15,2013-06-27 05:50:00,
2013-06-27 02:05:00,65.2,64.6,29.87,South,184,1.0,1.0,98,0.12,,,0.09,Wunderground v.1.15,2013-06-27 06:05:00,
2013-06-27 02:10:00,65.2,64.6,29.87,SSW,194,1.0,1.0,98,0.08,,,0.10,Wunderground v.1.15,2013-06-27 06:10:00,
2013-06-27 02:15:00,65.0,64.4,29.87,SSW,199,1.0,1.0,98,0.08,,,0.10,Wunderground v.1.15,2013-06-27 06:15:00,
2013-06-27 02:20:00,64.7,64.1,29.86,SSW,192,0.0,1.0,98,0.06,,,0.11,Wunderground v.1.15,2013-06-27 06:20:00,
2013-06-27 02:30:00,64.3,63.7,29.84,South,190,0.0,0.0,98,0.19,,,0.14,Wunderground v.1.15,2013-06-27 06:30:00,
2013-06-27 02:40:00,64.3,63.7,29.83,South,190,0.0,0.0,98,0.11,,,0.16,Wunderground v.1.15,2013-06-27 06:40:00,
2013-06-27 02:50:00,64.3,63.7,29.82,South,190,0.0,0.0,98,0.12,,,0.18,Wunderground v.1.15,2013-06-27 06:50:00,
2013-06-27 02:55:00,64.3,63.7,29.81,South,190,0.0,0.0,98,0.08,,,0.18,Wunderground v.1.15,2013-06-27 06:55:00,
2013-06-27 03:00:00,64.2,63.6,29.80,South,190,0.0,0.0,98,0.06,,,0.19,Wunderground v.1.15,2013-06-27 07:00:00,
2013-06-27 03:05:00,64.2,63.6,29.80,South,190,0.0,0.0,98,0.06,,,0.19,Wunderground v.1.15,2013-06-27 07:05:00,
2013-06-27 03:10:00,64.2,63.6,29.79,South,190,0.0,0.0,98,0.04,,,0.19,Wunderground v.1.15,2013-06-27 07:10:00,
2013-06-27 03:20:00,64.0,63.7,29.78,South,190,0.0,0.0,99,0.00,,,0.19,Wunderground v.1.15,2013-06-27 07:20:00,
2013-06-27 03:30:00,64.0,63.7,29.79,South,190,0.0,0.0,99,0.46,,,0.21,Wunderground v.1.15,2013-06-27 07:30:00,
2013-06-27 03:40:00,64.2,63.9,29.78,South,191,0.0,0.0,99,0.25,,,0.30,Wunderground v.1.15,2013-06-27 07:40:00,
2013-06-27 03:50:00,64.0,63.7,29.77,SSW,192,0.0,0.0,99,0.08,,,0.31,Wunderground v.1.15,2013-06-27 07:50:00,
2013-06-27 04:00:00,64.0,63.7,29.76,SSW,192,0.0,0.0,99,0.00,,,0.31,Wunderground v.1.15,2013-06-27 08:00:00,
2013-06-27 04:10:00,64.0,63.7,29.77,SSW,192,0.0,0.0,99,0.14,,,0.33,Wunderground v.1.15,2013-06-27 08:10:00,
2013-06-27 04:15:00,64.0,63.7,29.77,SSW,192,0.0,0.0,99,0.10,,,0.33,Wunderground v.1.15,2013-06-27 08:15:00,
2013-06-27 04:20:00,64.2,63.9,29.77,SSW,192,0.0,0.0,99,0.08,,,0.34,Wunderground v.1.15,2013-06-27 08:20:00,
2013-06-27 04:30:00,64.0,63.7,29.77,SSW,192,0.0,0.0,99,0.04,,,0.34,Wunderground v.1.15,2013-06-27 08:30:00,
2013-06-27 04:40:00,64.2,63.9,29.78,SSW,192,0.0,0.0,99,0.00,,,0.34,Wunderground v.1.15,2013-06-27 08:40:00,
2013-06-27 04:50:00,64.5,64.2,29.78,South,180,1.0,4.0,99,0.00,,,0.34,Wunderground v.1.15,2013-06-27 08:50:00,
2013-06-27 04:55:00,65.2,64.9,29.78,SSW,208,3.0,4.0,99,0.00,,,0.34,Wunderground v.1.15,2013-06-27 08:55:00,
2013-06-27 05:00:00,65.6,65.3,29.78,West,259,5.0,6.0,99,0.00,,,0.34,Wunderground v.1.15,2013-06-27 09:00:00,
2013-06-27 05:10:00,66.0,65.7,29.79,SSW,198,6.0,6.0,99,0.00,,,0.34,Wunderground v.1.15,2013-06-27 09:10:00,
2013-06-27 05:20:00,66.1,65.5,29.79,SSW,192,7.0,7.0,98,0.00,,,0.34,Wunderground v.1.15,2013-06-27 09:20:00,
2013-06-27 05:30:00,66.0,65.4,29.79,SSW,209,8.0,8.0,98,0.00,,,0.34,Wunderground v.1.15,2013-06-27 09:30:00,
2013-06-27 05:35:00,66.0,65.1,29.80,SW,220,7.0,8.0,97,0.00,,,0.34,Wunderground v.1.15,2013-06-27 09:35:00,
2013-06-27 05:45:00,65.8,64.9,29.80,SSW,207,5.0,7.0,97,0.00,,,0.34,Wunderground v.1.15,2013-06-27 09:45:00,
2013-06-27 05:50:00,65.3,64.4,29.80,SSW,199,5.0,7.0,97,0.00,,,0.34,Wunderground v.1.15,2013-06-27 09:50:00,
2013-06-27 05:55:00,64.8,63.9,29.81,SSW,211,6.0,7.0,97,0.00,,,0.34,Wunderground v.1.15,2013-06-27 09:55:00,
2013-06-27 06:05:00,64.3,63.4,29.81,SSW,200,8.0,8.0,97,0.00,,,0.34,Wunderground v.1.15,2013-06-27 10:05:00,
2013-06-27 06:10:00,64.2,63.3,29.81,South,176,7.0,7.0,97,0.00,,,0.34,Wunderground v.1.15,2013-06-27 10:10:00,
2013-06-27 06:20:00,63.9,63.0,29.82,SSW,200,4.0,6.0,97,0.00,,,0.34,Wunderground v.1.15,2013-06-27 10:20:00,
2013-06-27 06:30:00,63.9,63.0,29.82,SSW,208,5.0,5.0,97,0.00,,,0.34,Wunderground v.1.15,2013-06-27 10:30:00,
2013-06-27 06:40:00,63.7,62.8,29.82,SSW,213,5.0,5.0,97,0.00,,,0.34,Wunderground v.1.15,2013-06-27 10:40:00,
2013-06-27 06:50:00,63.7,63.1,29.82,South,191,3.0,8.0,98,0.00,,,0.34,Wunderground v.1.15,2013-06-27 10:50:00,
2013-06-27 07:00:00,63.7,63.1,29.82,SSW,196,5.0,5.0,98,0.00,,,0.34,Wunderground v.1.15,2013-06-27 11:00:00,
2013-06-27 07:05:00,63.7,63.1,29.82,South,191,4.0,5.0,98,0.00,,,0.34,Wunderground v.1.15,2013-06-27 11:05:00,
2013-06-27 07:10:00,63.7,62.8,29.82,SSW,210,3.0,3.0,97,0.00,,,0.34,Wunderground v.1.15,2013-06-27 11:10:00,
2013-06-27 07:15:00,63.7,63.1,29.82,South,187,2.0,3.0,98,0.00,,,0.34,Wunderground v.1.15,2013-06-27 11:15:00,
2013-06-27 07:20:00,63.7,62.8,29.82,SSW,203,2.0,2.0,97,0.00,,,0.34,Wunderground v.1.15,2013-06-27 11:20:00,
2013-06-27 07:30:00,63.9,63.3,29.82,South,190,3.0,3.0,98,0.00,,,0.34,Wunderground v.1.15,2013-06-27 11:30:00,
2013-06-27 07:40:00,63.9,63.0,29.81,SSW,200,3.0,3.0,97,0.00,,,0.34,Wunderground v.1.15,2013-06-27 11:40:00,
2013-06-27 07:50:00,64.0,63.1,29.82,SSW,202,3.0,3.0,97,0.00,,,0.34,Wunderground v.1.15,2013-06-27 11:50:00,
2013-06-27 07:55:00,64.0,63.1,29.82,SSW,209,4.0,4.0,97,0.00,,,0.34,Wunderground v.1.15,2013-06-27 11:55:00,
2013-06-27 08:05:00,63.9,63.0,29.83,SSW,205,3.0,4.0,97,0.00,,,0.34,Wunderground v.1.15,2013-06-27 12:05:00,
2013-06-27 08:15:00,63.9,63.0,29.83,SSW,196,0.0,4.0,97,0.00,,,0.34,Wunderground v.1.15,2013-06-27 12:15:00,
2013-06-27 08:25:00,63.9,63.0,29.82,SSW,192,1.0,6.0,97,0.00,,,0.35,Wunderground v.1.15,2013-06-27 12:25:00,
2013-06-27 08:35:00,64.0,63.4,29.82,SSW,198,0.0,0.0,98,0.00,,,0.35,Wunderground v.1.15,2013-06-27 12:35:00,
2013-06-27 08:45:00,64.0,63.4,29.82,SSW,196,0.0,0.0,98,0.00,,,0.35,Wunderground v.1.15,2013-06-27 12:45:00,
2013-06-27 08:50:00,64.2,63.6,29.82,SSW,200,0.0,0.0,98,0.00,,,0.35,Wunderground v.1.15,2013-06-27 12:50:00,
2013-06-27 09:00:00,64.8,64.2,29.82,SW,214,0.0,4.0,98,0.00,,,0.35,Wunderground v.1.15,2013-06-27 13:00:00,
2013-06-27 09:10:00,65.0,64.4,29.82,SSW,211,1.0,3.0,98,0.00,,,0.35,Wunderground v.1.15,2013-06-27 13:10:00,
2013-06-27 09:20:00,65.2,64.3,29.83,SW,214,3.0,3.0,97,0.00,,,0.35,Wunderground v.1.15,2013-06-27 13:20:00,
2013-06-27 09:30:00,65.6,64.4,29.82,SSW,205,2.0,2.0,96,0.00,,,0.35,Wunderground v.1.15,2013-06-27 13:30:00,
2013-06-27 09:40:00,66.1,64.3,29.82,South,182,4.0,5.0,94,0.00,,,0.35,Wunderground v.1.15,2013-06-27 13:40:00,
2013-06-27 09:50:00,66.8,65.0,29.82,South,190,2.0,2.0,94,0.00,,,0.35,Wunderground v.1.15,2013-06-27 13:50:00,
2013-06-27 10:00:00,66.6,64.2,29.82,SW,221,1.0,4.0,92,0.00,,,0.35,Wunderground v.1.15,2013-06-27 14:00:00,
2013-06-27 10:05:00,66.6,64.8,29.82,SSW,193,1.0,4.0,94,0.00,,,0.36,Wunderground v.1.15,2013-06-27 14:05:00,
2013-06-27 10:15:00,66.4,64.6,29.81,SSW,194,1.0,1.0,94,0.00,,,0.36,Wunderground v.1.15,2013-06-27 14:15:00,
2013-06-27 10:20:00,66.3,64.5,29.82,SSW,193,1.0,1.0,94,0.00,,,0.36,Wunderground v.1.15,2013-06-27 14:20:00,
2013-06-27 10:30:00,65.8,64.0,29.82,SSW,194,3.0,3.0,94,0.00,,,0.36,Wunderground v.1.15,2013-06-27 14:30:00,
2013-06-27 10:35:00,65.6,64.1,29.81,SSW,193,1.0,3.0,95,0.00,,,0.36,Wunderground v.1.15,2013-06-27 14:35:00,
2013-06-27 10:40:00,65.6,64.1,29.81,SSE,165,1.0,1.0,95,0.00,,,0.36,Wunderground v.1.15,2013-06-27 14:40:00,
2013-06-27 10:50:00,65.3,63.8,29.81,SSW,195,1.0,1.0,95,0.00,,,0.36,Wunderground v.1.15,2013-06-27 14:50:00,
2013-06-27 11:00:00,65.2,63.7,29.81,SSW,193,1.0,1.0,95,0.00,,,0.36,Wunderground v.1.15,2013-06-27 15:00:00,
2013-06-27 11:05:00,65.2,64.0,29.81,SSW,203,1.0,1.0,96,0.00,,,0.36,Wunderground v.1.15,2013-06-27 15:05:00,
2013-06-27 11:10:00,65.2,64.0,29.81,SW,217,0.0,0.0,96,0.00,,,0.36,Wunderground v.1.15,2013-06-27 15:10:00,
2013-06-27 11:15:00,65.3,64.1,29.81,SSW,192,1.0,1.0,96,0.00,,,0.36,Wunderground v.1.15,2013-06-27 15:15:00,
2013-06-27 11:20:00,65.3,64.1,29.81,SSW,192,1.0,1.0,96,0.00,,,0.36,Wunderground v.1.15,2013-06-27 15:20:00,
2013-06-27 11:30:00,65.5,64.0,29.82,South,186,1.0,5.0,95,0.00,,,0.36,Wunderground v.1.15,2013-06-27 15:30:00,
2013-06-27 11:35:00,65.5,64.3,29.82,South,190,1.0,5.0,96,0.00,,,0.36,Wunderground v.1.15,2013-06-27 15:35:00,
2013-06-27 11:40:00,65.5,64.0,29.82,SSW,199,1.0,4.0,95,0.00,,,0.36,Wunderground v.1.15,2013-06-27 15:40:00,
2013-06-27 11:45:00,65.5,63.7,29.82,SSW,205,3.0,4.0,94,0.00,,,0.36,Wunderground v.1.15,2013-06-27 15:45:00,
2013-06-27 11:50:00,65.5,64.0,29.82,SSW,194,3.0,5.0,95,0.00,,,0.36,Wunderground v.1.15,2013-06-27 15:50:00,
2013-06-27 12:00:00,65.6,64.1,29.82,SSW,207,3.0,6.0,95,0.00,,,0.36,Wunderground v.1.15,2013-06-27 16:00:00,
2013-06-27 12:10:00,66.0,64.8,29.81,SSW,199,2.0,2.0,96,0.00,,,0.36,Wunderground v.1.15,2013-06-27 16:10:00,
2013-06-27 12:20:00,66.3,65.1,29.81,SSW,211,2.0,2.0,96,0.00,,,0.36,Wunderground v.1.15,2013-06-27 16:20:00,
2013-06-27 12:30:00,66.9,65.7,29.81,SSW,195,1.0,5.0,96,0.00,,,0.36,Wunderground v.1.15,2013-06-27 16:30:00,
2013-06-27 12:40:00,66.6,65.4,29.81,SSW,195,4.0,4.0,96,0.00,,,0.36,Wunderground v.1.15,2013-06-27 16:40:00,
2013-06-27 12:50:00,67.1,65.9,29.81,WSW,250,2.0,5.0,96,0.00,,,0.36,Wunderground v.1.15,2013-06-27 16:50:00,
2013-06-27 13:00:00,67.3,66.1,29.81,SSW,196,4.0,4.0,96,0.00,,,0.36,Wunderground v.1.15,2013-06-27 17:00:00,
2013-06-27 13:10:00,67.8,66.6,29.81,SSW,211,4.0,4.0,96,0.00,,,0.36,Wunderground v.1.15,2013-06-27 17:10:00,
2013-06-27 13:15:00,67.9,66.7,29.81,SSW,202,2.0,4.0,96,0.00,,,0.36,Wunderground v.1.15,2013-06-27 17:15:00,
2013-06-27 13:20:00,68.1,66.9,29.81,SSW,205,1.0,1.0,96,0.00,,,0.36,Wunderground v.1.15,2013-06-27 17:20:00,
2013-06-27 13:25:00,68.1,66.9,29.81,SW,217,2.0,4.0,96,0.00,,,0.36,Wunderground v.1.15,2013-06-27 17:25:00,
2013-06-27 13:30:00,68.3,67.1,29.81,SW,218,2.0,3.0,96,0.00,,,0.36,Wunderground v.1.15,2013-06-27 17:30:00,
2013-06-27 13:40:00,68.3,67.1,29.81,South,176,4.0,4.0,96,0.00,,,0.36,Wunderground v.1.15,2013-06-27 17:40:00,
2013-06-27 13:45:00,68.3,67.1,29.81,South,186,4.0,4.0,96,0.00,,,0.36,Wunderground v.1.15,2013-06-27 17:45:00,
2013-06-27 13:55:00,68.3,67.1,29.81,SW,214,3.0,5.0,96,0.00,,,0.36,Wunderground v.1.15,2013-06-27 17:55:00,
2013-06-27 14:00:00,68.1,68.1,29.80,SSW,208,3.0,3.0,100,0.00,,,0.36,Wunderground v.1.15,2013-06-27 18:00:00,
2013-06-27 14:05:00,68.1,67.2,29.80,SSW,202,3.0,7.0,97,0.00,,,0.36,Wunderground v.1.15,2013-06-27 18:05:00,
2013-06-27 14:15:00,68.1,67.2,29.81,SSW,197,4.0,5.0,97,0.00,,,0.36,Wunderground v.1.15,2013-06-27 18:15:00,
2013-06-27 14:20:00,68.3,67.4,29.80,South,188,5.0,5.0,97,0.00,,,0.36,Wunderground v.1.15,2013-06-27 18:20:00,
2013-06-27 14:30:00,68.4,67.5,29.81,SSW,195,4.0,5.0,97,0.00,,,0.36,Wunderground v.1.15,2013-06-27 18:30:00,
2013-06-27 14:40:00,68.4,67.5,29.80,SSW,203,3.0,3.0,97,0.00,,,0.36,Wunderground v.1.15,2013-06-27 18:40:00,
2013-06-27 14:50:00,68.6,67.7,29.80,SSW,200,2.0,4.0,97,0.00,,,0.36,Wunderground v.1.15,2013-06-27 18:50:00,
2013-06-27 15:00:00,68.8,67.9,29.80,South,188,2.0,5.0,97,0.00,,,0.36,Wunderground v.1.15,2013-06-27 19:00:00,
2013-06-27 15:10:00,68.9,68.0,29.80,SSW,192,3.0,3.0,97,0.00,,,0.36,Wunderground v.1.15,2013-06-27 19:10:00,
2013-06-27 15:15:00,69.4,68.5,29.80,SSW,198,3.0,3.0,97,0.00,,,0.36,Wunderground v.1.15,2013-06-27 19:15:00,
2013-06-27 15:20:00,69.6,68.4,29.80,SSW,208,3.0,7.0,96,0.00,,,0.36,Wunderground v.1.15,2013-06-27 19:20:00,
2013-06-27 15:25:00,70.1,68.9,29.80,SSW,201,4.0,7.0,96,0.00,,,0.36,Wunderground v.1.15,2013-06-27 19:25:00,
2013-06-27 15:30:00,70.4,68.9,29.80,South,191,3.0,6.0,95,0.00,,,0.36,Wunderground v.1.15,2013-06-27 19:30:00,
2013-06-27 15:40:00,70.6,69.1,29.79,SSW,194,4.0,4.0,95,0.00,,,0.36,Wunderground v.1.15,2013-06-27 19:40:00,
2013-06-27 15:45:00,70.9,69.4,29.79,South,188,2.0,4.0,95,0.00,,,0.36,Wunderground v.1.15,2013-06-27 19:45:00,
2013-06-27 15:55:00,71.6,69.8,29.79,SSW,213,1.0,3.0,94,0.00,,,0.36,Wunderground v.1.15,2013-06-27 19:55:00,
2013-06-27 16:00:00,71.6,69.5,29.78,SSW,210,2.0,7.0,93,0.00,,,0.36,Wunderground v.1.15,2013-06-27 20:00:00,
2013-06-27 16:10:00,72.1,69.6,29.78,SSW,202,5.0,5.0,92,0.00,,,0.36,Wunderground v.1.15,2013-06-27 20:10:00,
2013-06-27 16:20:00,72.8,69.7,29.78,South,188,4.0,5.0,90,0.00,,,0.36,Wunderground v.1.15,2013-06-27 20:20:00,
2013-06-27 16:30:00,73.3,70.2,29.78,South,188,4.0,4.0,90,0.00,,,0.36,Wunderground v.1.15,2013-06-27 20:30:00,
2013-06-27 16:35:00,73.9,70.5,29.78,SSW,196,4.0,4.0,89,0.00,,,0.36,Wunderground v.1.15,2013-06-27 20:35:00,
2013-06-27 16:40:00,73.9,70.8,29.78,South,185,3.0,5.0,90,0.00,,,0.36,Wunderground v.1.15,2013-06-27 20:40:00,
2013-06-27 16:50:00,73.2,69.8,29.77,SSW,196,3.0,3.0,89,0.00,,,0.36,Wunderground v.1.15,2013-06-27 20:50:00,
2013-06-27 16:55:00,72.8,69.4,29.77,SSW,200,3.0,3.0,89,0.00,,,0.36,Wunderground v.1.15,2013-06-27 20:55:00,
2013-06-27 17:05:00,73.3,70.2,29.76,SSW,209,2.0,3.0,90,0.00,,,0.36,Wunderground v.1.15,2013-06-27 21:05:00,
2013-06-27 17:10:00,73.5,70.1,29.76,SW,215,1.0,1.0,89,0.00,,,0.36,Wunderground v.1.15,2013-06-27 21:10:00,
2013-06-27 17:30:00,74.2,70.4,29.75,SSW,195,0.0,0.0,88,0.00,,,0.36,Wunderground v.1.15,2013-06-27 21:30:00,
2013-06-27 17:45:00,74.2,70.4,29.75,South,190,1.0,1.0,88,0.00,,,0.36,Wunderground v.1.15,2013-06-27 21:45:00,
2013-06-27 17:55:00,74.7,70.6,29.75,SSW,202,1.0,1.0,87,0.00,,,0.36,Wunderground v.1.15,2013-06-27 21:55:00,
2013-06-27 18:05:00,76.1,71.3,29.74,SSW,205,0.0,1.0,85,0.00,,,0.36,Wunderground v.1.15,2013-06-27 22:05:00,
2013-06-27 18:15:00,76.7,70.8,29.74,SSW,194,1.0,1.0,82,0.00,,,0.36,Wunderground v.1.15,2013-06-27 22:15:00,
2013-06-27 18:30:00,75.1,70.6,29.74,South,178,0.0,0.0,86,0.00,,,0.36,Wunderground v.1.15,2013-06-27 22:30:00,
2013-06-27 18:35:00,75.4,70.9,29.74,SSW,203,0.0,0.0,86,0.00,,,0.36,Wunderground v.1.15,2013-06-27 22:35:00,
2013-06-27 18:45:00,76.3,71.1,29.74,SSW,208,0.0,1.0,84,0.00,,,0.36,Wunderground v.1.15,2013-06-27 22:45:00,
2013-06-27 18:50:00,76.1,70.9,29.73,South,182,0.0,5.0,84,0.00,,,0.36,Wunderground v.1.15,2013-06-27 22:50:00,
2013-06-27 19:00:00,75.4,70.9,29.73,SSW,201,0.0,0.0,86,0.00,,,0.36,Wunderground v.1.15,2013-06-27 23:00:00,
2013-06-27 19:05:00,75.1,70.6,29.73,South,190,0.0,4.0,86,0.00,,,0.36,Wunderground v.1.15,2013-06-27 23:05:00,
2013-06-27 19:10:00,74.9,70.8,29.73,SSW,194,0.0,0.0,87,0.00,,,0.36,Wunderground v.1.15,2013-06-27 23:10:00,
2013-06-27 19:20:00,74.9,71.1,29.73,SSW,196,1.0,1.0,88,0.00,,,0.36,Wunderground v.1.15,2013-06-27 23:20:00,
2013-06-27 19:25:00,74.9,70.8,29.73,South,174,1.0,4.0,87,0.00,,,0.36,Wunderground v.1.15,2013-06-27 23:25:00,
2013-06-27 19:35:00,74.6,70.8,29.73,SSW,198,3.0,5.0,88,0.00,,,0.36,Wunderground v.1.15,2013-06-27 23:35:00,
2013-06-27 19:40:00,74.4,70.6,29.73,SSW,206,4.0,5.0,88,0.00,,,0.36,Wunderground v.1.15,2013-06-27 23:40:00,
2013-06-27 19:45:00,74.4,70.9,29.73,SSW,196,4.0,5.0,89,0.00,,,0.36,Wunderground v.1.15,2013-06-27 23:45:00,
2013-06-27 19:55:00,74.2,70.7,29.74,SW,232,4.0,5.0,89,0.00,,,0.36,Wunderground v.1.15,2013-06-27 23:55:00,
2013-06-27 20:05:00,74.2,70.7,29.74,SW,232,1.0,5.0,89,0.00,,,0.36,Wunderground v.1.15,2013-06-28 00:05:00,
2013-06-27 20:15:00,74.0,70.2,29.74,SSW,197,1.0,1.0,88,0.00,,,0.36,Wunderground v.1.15,2013-06-28 00:15:00,
2013-06-27 20:20:00,73.9,70.1,29.74,SW,214,1.0,1.0,88,0.00,,,0.36,Wunderground v.1.15,2013-06-28 00:20:00,
2013-06-27 20:25:00,73.7,69.9,29.74,SSW,202,1.0,1.0,88,0.00,,,0.36,Wunderground v.1.15,2013-06-28 00:25:00,
2013-06-27 20:35:00,73.5,69.7,29.74,SSW,209,0.0,0.0,88,0.00,,,0.36,Wunderground v.1.15,2013-06-28 00:35:00,
2013-06-27 20:45:00,73.3,69.5,29.75,SSW,207,0.0,0.0,88,0.00,,,0.36,Wunderground v.1.15,2013-06-28 00:45:00,
2013-06-27 20:50:00,73.2,69.8,29.75,SSW,212,0.0,0.0,89,0.00,,,0.36,Wunderground v.1.15,2013-06-28 00:50:00,
2013-06-27 21:00:00,72.8,69.7,29.75,SW,217,0.0,0.0,90,0.00,,,0.36,Wunderground v.1.15,2013-06-28 01:00:00,
2013-06-27 21:15:00,72.3,69.2,29.75,SW,217,0.0,0.0,90,0.00,,,0.36,Wunderground v.1.15,2013-06-28 01:15:00,
2013-06-27 21:20:00,72.0,68.9,29.75,SW,217,0.0,0.0,90,0.00,,,0.36,Wunderground v.1.15,2013-06-28 01:20:00,
2013-06-27 21:35:00,71.1,68.7,29.76,SW,217,0.0,0.0,92,0.00,,,0.36,Wunderground v.1.15,2013-06-28 01:35:00,
2013-06-27 21:40:00,70.9,68.5,29.76,SW,217,0.0,0.0,92,0.00,,,0.36,Wunderground v.1.15,2013-06-28 01:40:00,
2013-06-27 21:50:00,70.9,69.1,29.76,SW,217,0.0,0.0,94,0.00,,,0.36,Wunderground v.1.15,2013-06-28 01:50:00,
2013-06-27 22:05:00,70.6,68.8,29.76,SW,217,0.0,0.0,94,0.00,,,0.36,Wunderground v.1.15,2013-06-28 02:05:00,
2013-06-27 22:15:00,70.3,68.8,29.77,SW,217,0.0,0.0,95,0.00,,,0.36,Wunderground v.1.15,2013-06-28 02:15:00,
2013-06-27 22:20:00,70.1,68.6,29.77,SW,217,0.0,0.0,95,0.00,,,0.36,Wunderground v.1.15,2013-06-28 02:20:00,
2013-06-27 22:25:00,69.8,68.3,29.77,SW,217,0.0,0.0,95,0.00,,,0.36,Wunderground v.1.15,2013-06-28 02:25:00,
2013-06-27 22:30:00,69.6,68.1,29.77,SW,217,0.0,0.0,95,0.00,,,0.36,Wunderground v.1.15,2013-06-28 02:30:00,
2013-06-27 22:45:00,68.9,67.4,29.78,SW,217,0.0,0.0,95,0.00,,,0.36,Wunderground v.1.15,2013-06-28 02:45:00,
2013-06-27 22:50:00,68.8,67.6,29.78,SW,217,0.0,0.0,96,0.00,,,0.36,Wunderground v.1.15,2013-06-28 02:50:00,
2013-06-27 23:00:00,68.9,68.0,29.78,SW,217,0.0,0.0,97,0.00,,,0.36,Wunderground v.1.15,2013-06-28 03:00:00,
2013-06-27 23:10:00,69.1,68.2,29.77,SW,217,0.0,0.0,97,0.00,,,0.36,Wunderground v.1.15,2013-06-28 03:10:00,
2013-06-27 23:20:00,69.3,68.7,29.76,South,191,0.0,0.0,98,0.00,,,0.36,Wunderground v.1.15,2013-06-28 03:20:00,
2013-06-27 23:25:00,69.4,68.5,29.76,SSW,193,0.0,0.0,97,0.00,,,0.36,Wunderground v.1.15,2013-06-28 03:25:00,
2013-06-27 23:40:00,69.6,68.7,29.76,SSW,212,0.0,0.0,97,0.00,,,0.36,Wunderground v.1.15,2013-06-28 03:40:00,
2013-06-27 23:50:00,69.3,68.7,29.76,SSW,212,0.0,0.0,98,0.00,,,0.36,Wunderground v.1.15,2013-06-28 03:50:00,
2013-06-27 23:55:00,69.4,68.8,29.76,SSW,212,0.0,2.0,98,0.00,,,0.36,Wunderground v.1.15,2013-06-28 03:55:00,